sensor_id;sensor_type;location;lat;lon;timestamp;P1;durP1;ratioP1;P2;durP2;ratioP2
68377;SDS011;55322;48.146;11.516;2024-02-15T00:01:51;5.43;;;0.80;;
68377;SDS011;55322;48.146;11.516;2024-02-15T00:04:16;5.55;;;0.80;;
68377;SDS011;55322;48.146;11.516;2024-02-15T00:06:42;4.20;;;0.80;;
68377;SDS011;55322;48.146;11.516;2024-02-15T00:09:08;4.93;;;0.80;;
68377;SDS011;55322;48.146;11.516;2024-02-15T00:11:33;4.10;;;0.80;;
68377;SDS011;55322;48.146;11.516;2024-02-15T00:13:59;5.80;;;0.90;;
68377;SDS011;55322;48.146;11.516;2024-02-15T00:16:25;4.15;;;0.73;;
68377;SDS011;55322;48.146;11.516;2024-02-15T00:18:52;5.38;;;1.00;;
68377;SDS011;55322;48.146;11.516;2024-02-15T00:21:20;6.60;;;1.13;;
68377;SDS011;55322;48.146;11.516;2024-02-15T00:23:46;4.00;;;0.77;;
68377;SDS011;55322;48.146;11.516;2024-02-15T00:26:12;4.27;;;0.83;;
68377;SDS011;55322;48.146;11.516;2024-02-15T00:28:37;4.23;;;0.80;;
68377;SDS011;55322;48.146;11.516;2024-02-15T00:31:03;3.70;;;0.60;;
68377;SDS011;55322;48.146;11.516;2024-02-15T00:33:28;3.92;;;0.68;;
68377;SDS011;55322;48.146;11.516;2024-02-15T00:35:54;4.73;;;0.70;;
68377;SDS011;55322;48.146;11.516;2024-02-15T00:38:19;5.27;;;0.90;;
68377;SDS011;55322;48.146;11.516;2024-02-15T00:40:45;4.17;;;0.80;;
68377;SDS011;55322;48.146;11.516;2024-02-15T00:43:10;4.90;;;0.90;;
68377;SDS011;55322;48.146;11.516;2024-02-15T00:45:36;6.17;;;1.17;;
68377;SDS011;55322;48.146;11.516;2024-02-15T00:48:01;4.87;;;0.77;;
68377;SDS011;55322;48.146;11.516;2024-02-15T00:50:27;4.07;;;0.75;;
68377;SDS011;55322;48.146;11.516;2024-02-15T00:52:52;4.23;;;0.90;;
68377;SDS011;55322;48.146;11.516;2024-02-15T00:55:17;3.57;;;0.70;;
68377;SDS011;55322;48.146;11.516;2024-02-15T00:57:44;5.80;;;0.70;;
68377;SDS011;55322;48.146;11.516;2024-02-15T01:00:09;3.40;;;0.70;;
68377;SDS011;55322;48.146;11.516;2024-02-15T01:02:35;5.50;;;0.80;;
68377;SDS011;55322;48.146;11.516;2024-02-15T01:05:01;4.40;;;0.80;;
68377;SDS011;55322;48.146;11.516;2024-02-15T01:07:26;4.70;;;0.70;;
68377;SDS011;55322;48.146;11.516;2024-02-15T01:09:52;3.80;;;0.60;;
68377;SDS011;55322;48.146;11.516;2024-02-15T01:12:18;4.05;;;0.90;;
68377;SDS011;55322;48.146;11.516;2024-02-15T01:14:44;4.17;;;0.67;;
68377;SDS011;55322;48.146;11.516;2024-02-15T01:17:09;3.70;;;0.73;;
68377;SDS011;55322;48.146;11.516;2024-02-15T01:19:34;3.33;;;0.70;;
68377;SDS011;55322;48.146;11.516;2024-02-15T01:22:00;3.83;;;0.70;;
68377;SDS011;55322;48.146;11.516;2024-02-15T01:24:25;4.43;;;0.83;;
68377;SDS011;55322;48.146;11.516;2024-02-15T01:26:51;4.43;;;0.90;;
68377;SDS011;55322;48.146;11.516;2024-02-15T01:29:16;4.10;;;0.70;;
68377;SDS011;55322;48.146;11.516;2024-02-15T01:31:42;4.00;;;0.73;;
68377;SDS011;55322;48.146;11.516;2024-02-15T01:34:08;5.05;;;1.00;;
68377;SDS011;55322;48.146;11.516;2024-02-15T01:36:34;4.32;;;0.70;;
68377;SDS011;55322;48.146;11.516;2024-02-15T01:38:59;6.70;;;0.80;;
68377;SDS011;55322;48.146;11.516;2024-02-15T01:41:24;5.00;;;1.10;;
68377;SDS011;55322;48.146;11.516;2024-02-15T01:43:50;4.60;;;0.70;;
68377;SDS011;55322;48.146;11.516;2024-02-15T01:46:16;4.97;;;0.98;;
68377;SDS011;55322;48.146;11.516;2024-02-15T01:48:42;4.55;;;0.90;;
68377;SDS011;55322;48.146;11.516;2024-02-15T01:51:09;4.83;;;0.90;;
68377;SDS011;55322;48.146;11.516;2024-02-15T01:53:36;5.22;;;0.93;;
68377;SDS011;55322;48.146;11.516;2024-02-15T01:56:02;4.65;;;0.90;;
68377;SDS011;55322;48.146;11.516;2024-02-15T01:58:28;4.97;;;0.90;;
68377;SDS011;55322;48.146;11.516;2024-02-15T02:00:57;4.30;;;0.80;;
68377;SDS011;55322;48.146;11.516;2024-02-15T02:03:23;4.97;;;0.80;;
68377;SDS011;55322;48.146;11.516;2024-02-15T02:05:48;5.27;;;1.20;;
68377;SDS011;55322;48.146;11.516;2024-02-15T02:08:14;4.68;;;1.10;;
68377;SDS011;55322;48.146;11.516;2024-02-15T02:10:39;4.57;;;0.80;;
68377;SDS011;55322;48.146;11.516;2024-02-15T02:13:05;4.50;;;0.85;;
68377;SDS011;55322;48.146;11.516;2024-02-15T02:15:31;7.97;;;1.30;;
68377;SDS011;55322;48.146;11.516;2024-02-15T02:17:57;7.15;;;1.02;;
68377;SDS011;55322;48.146;11.516;2024-02-15T02:20:26;4.72;;;0.80;;
68377;SDS011;55322;48.146;11.516;2024-02-15T02:22:53;4.30;;;0.80;;
68377;SDS011;55322;48.146;11.516;2024-02-15T02:25:22;5.35;;;0.80;;
68377;SDS011;55322;48.146;11.516;2024-02-15T02:27:51;3.90;;;0.67;;
68377;SDS011;55322;48.146;11.516;2024-02-15T02:30:17;3.92;;;0.70;;
68377;SDS011;55322;48.146;11.516;2024-02-15T02:32:44;3.88;;;0.75;;
68377;SDS011;55322;48.146;11.516;2024-02-15T02:35:11;3.88;;;0.60;;
68377;SDS011;55322;48.146;11.516;2024-02-15T02:37:41;3.90;;;0.88;;
68377;SDS011;55322;48.146;11.516;2024-02-15T02:40:07;3.63;;;0.60;;
68377;SDS011;55322;48.146;11.516;2024-02-15T02:42:37;4.70;;;0.82;;
68377;SDS011;55322;48.146;11.516;2024-02-15T02:45:13;4.28;;;0.70;;
68377;SDS011;55322;48.146;11.516;2024-02-15T02:47:38;5.27;;;1.20;;
68377;SDS011;55322;48.146;11.516;2024-02-15T02:50:04;4.23;;;0.70;;
68377;SDS011;55322;48.146;11.516;2024-02-15T02:52:30;3.47;;;0.67;;
68377;SDS011;55322;48.146;11.516;2024-02-15T02:54:55;4.10;;;0.70;;
68377;SDS011;55322;48.146;11.516;2024-02-15T02:57:21;3.85;;;0.70;;
68377;SDS011;55322;48.146;11.516;2024-02-15T02:59:46;4.23;;;0.77;;
68377;SDS011;55322;48.146;11.516;2024-02-15T03:02:12;3.83;;;1.00;;
68377;SDS011;55322;48.146;11.516;2024-02-15T03:04:38;3.63;;;0.70;;
68377;SDS011;55322;48.146;11.516;2024-02-15T03:07:05;4.00;;;0.80;;
68377;SDS011;55322;48.146;11.516;2024-02-15T03:09:30;4.40;;;0.70;;
68377;SDS011;55322;48.146;11.516;2024-02-15T03:11:56;4.18;;;0.75;;
68377;SDS011;55322;48.146;11.516;2024-02-15T03:14:22;4.40;;;0.90;;
68377;SDS011;55322;48.146;11.516;2024-02-15T03:16:47;4.00;;;0.60;;
68377;SDS011;55322;48.146;11.516;2024-02-15T03:19:12;7.10;;;0.73;;
68377;SDS011;55322;48.146;11.516;2024-02-15T03:21:38;3.90;;;0.80;;
68377;SDS011;55322;48.146;11.516;2024-02-15T03:24:03;4.80;;;0.80;;
68377;SDS011;55322;48.146;11.516;2024-02-15T03:26:32;4.00;;;0.70;;
68377;SDS011;55322;48.146;11.516;2024-02-15T03:29:01;3.83;;;0.70;;
68377;SDS011;55322;48.146;11.516;2024-02-15T03:31:29;3.25;;;0.63;;
68377;SDS011;55322;48.146;11.516;2024-02-15T03:33:58;4.28;;;0.77;;
68377;SDS011;55322;48.146;11.516;2024-02-15T03:36:24;4.90;;;0.83;;
68377;SDS011;55322;48.146;11.516;2024-02-15T03:38:49;4.10;;;0.80;;
68377;SDS011;55322;48.146;11.516;2024-02-15T03:41:18;3.92;;;0.80;;
68377;SDS011;55322;48.146;11.516;2024-02-15T03:43:43;2.97;;;0.50;;
68377;SDS011;55322;48.146;11.516;2024-02-15T03:46:08;4.10;;;0.80;;
68377;SDS011;55322;48.146;11.516;2024-02-15T03:48:37;4.40;;;0.85;;
68377;SDS011;55322;48.146;11.516;2024-02-15T03:51:03;4.43;;;1.00;;
68377;SDS011;55322;48.146;11.516;2024-02-15T03:53:28;5.00;;;0.70;;
68377;SDS011;55322;48.146;11.516;2024-02-15T03:55:56;4.30;;;0.85;;
68377;SDS011;55322;48.146;11.516;2024-02-15T03:58:21;4.37;;;0.60;;
68377;SDS011;55322;48.146;11.516;2024-02-15T04:00:47;3.63;;;0.70;;
68377;SDS011;55322;48.146;11.516;2024-02-15T04:03:12;4.30;;;0.70;;
68377;SDS011;55322;48.146;11.516;2024-02-15T04:05:38;4.60;;;0.90;;
68377;SDS011;55322;48.146;11.516;2024-02-15T04:08:03;3.57;;;0.60;;
68377;SDS011;55322;48.146;11.516;2024-02-15T04:10:30;4.30;;;0.70;;
68377;SDS011;55322;48.146;11.516;2024-02-15T04:12:55;4.93;;;0.80;;
68377;SDS011;55322;48.146;11.516;2024-02-15T04:15:23;3.43;;;0.63;;
68377;SDS011;55322;48.146;11.516;2024-02-15T04:17:49;4.25;;;0.80;;
68377;SDS011;55322;48.146;11.516;2024-02-15T04:20:20;4.38;;;0.80;;
68377;SDS011;55322;48.146;11.516;2024-02-15T04:22:46;4.33;;;0.90;;
68377;SDS011;55322;48.146;11.516;2024-02-15T04:25:12;4.10;;;0.60;;
68377;SDS011;55322;48.146;11.516;2024-02-15T04:27:43;4.15;;;0.85;;
68377;SDS011;55322;48.146;11.516;2024-02-15T04:30:11;3.78;;;0.70;;
68377;SDS011;55322;48.146;11.516;2024-02-15T04:32:36;3.50;;;0.60;;
68377;SDS011;55322;48.146;11.516;2024-02-15T04:35:02;5.45;;;1.05;;
68377;SDS011;55322;48.146;11.516;2024-02-15T04:37:28;4.97;;;0.83;;
68377;SDS011;55322;48.146;11.516;2024-02-15T04:39:57;3.08;;;0.45;;
68377;SDS011;55322;48.146;11.516;2024-02-15T04:42:51;4.18;;;0.80;;
68377;SDS011;55322;48.146;11.516;2024-02-15T04:45:17;3.93;;;0.83;;
68377;SDS011;55322;48.146;11.516;2024-02-15T04:47:43;4.25;;;0.80;;
68377;SDS011;55322;48.146;11.516;2024-02-15T04:50:10;5.00;;;0.85;;
68377;SDS011;55322;48.146;11.516;2024-02-15T04:52:36;3.37;;;0.70;;
68377;SDS011;55322;48.146;11.516;2024-02-15T04:55:02;3.47;;;0.52;;
68377;SDS011;55322;48.146;11.516;2024-02-15T04:57:30;3.90;;;0.73;;
68377;SDS011;55322;48.146;11.516;2024-02-15T04:59:55;5.68;;;0.88;;
68377;SDS011;55322;48.146;11.516;2024-02-15T05:02:21;4.17;;;0.80;;
68377;SDS011;55322;48.146;11.516;2024-02-15T05:04:49;4.72;;;1.00;;
68377;SDS011;55322;48.146;11.516;2024-02-15T05:07:20;3.63;;;0.70;;
68377;SDS011;55322;48.146;11.516;2024-02-15T05:09:47;4.32;;;0.85;;
68377;SDS011;55322;48.146;11.516;2024-02-15T05:12:20;4.15;;;0.85;;
68377;SDS011;55322;48.146;11.516;2024-02-15T05:14:47;3.88;;;0.68;;
68377;SDS011;55322;48.146;11.516;2024-02-15T05:17:13;4.78;;;0.90;;
68377;SDS011;55322;48.146;11.516;2024-02-15T05:19:39;4.03;;;0.77;;
68377;SDS011;55322;48.146;11.516;2024-02-15T05:22:04;4.33;;;0.70;;
68377;SDS011;55322;48.146;11.516;2024-02-15T05:24:31;4.75;;;0.70;;
68377;SDS011;55322;48.146;11.516;2024-02-15T05:26:58;3.95;;;0.73;;
68377;SDS011;55322;48.146;11.516;2024-02-15T05:29:23;3.95;;;0.70;;
68377;SDS011;55322;48.146;11.516;2024-02-15T05:31:48;4.10;;;0.80;;
68377;SDS011;55322;48.146;11.516;2024-02-15T05:34:16;4.00;;;0.77;;
68377;SDS011;55322;48.146;11.516;2024-02-15T05:36:42;6.03;;;0.80;;
68377;SDS011;55322;48.146;11.516;2024-02-15T05:39:07;3.90;;;0.80;;
68377;SDS011;55322;48.146;11.516;2024-02-15T05:41:33;4.78;;;0.90;;
68377;SDS011;55322;48.146;11.516;2024-02-15T05:43:59;3.27;;;0.60;;
68377;SDS011;55322;48.146;11.516;2024-02-15T05:46:24;7.00;;;1.08;;
68377;SDS011;55322;48.146;11.516;2024-02-15T05:48:50;4.00;;;0.77;;
68377;SDS011;55322;48.146;11.516;2024-02-15T05:51:18;3.63;;;0.60;;
68377;SDS011;55322;48.146;11.516;2024-02-15T05:53:44;4.67;;;0.90;;
68377;SDS011;55322;48.146;11.516;2024-02-15T05:56:10;3.70;;;0.77;;
68377;SDS011;55322;48.146;11.516;2024-02-15T05:58:35;4.53;;;1.03;;
68377;SDS011;55322;48.146;11.516;2024-02-15T06:01:03;4.15;;;0.77;;
68377;SDS011;55322;48.146;11.516;2024-02-15T06:03:32;5.00;;;0.82;;
68377;SDS011;55322;48.146;11.516;2024-02-15T06:05:59;5.60;;;1.00;;
68377;SDS011;55322;48.146;11.516;2024-02-15T06:08:31;4.10;;;0.68;;
68377;SDS011;55322;48.146;11.516;2024-02-15T06:10:57;4.72;;;0.80;;
68377;SDS011;55322;48.146;11.516;2024-02-15T06:13:23;4.97;;;1.10;;
68377;SDS011;55322;48.146;11.516;2024-02-15T06:15:49;4.22;;;0.75;;
68377;SDS011;55322;48.146;11.516;2024-02-15T06:18:19;4.60;;;0.90;;
68377;SDS011;55322;48.146;11.516;2024-02-15T06:20:46;3.57;;;0.60;;
68377;SDS011;55322;48.146;11.516;2024-02-15T06:23:15;3.88;;;0.73;;
68377;SDS011;55322;48.146;11.516;2024-02-15T06:25:41;7.53;;;0.80;;
68377;SDS011;55322;48.146;11.516;2024-02-15T06:28:06;3.63;;;0.60;;
68377;SDS011;55322;48.146;11.516;2024-02-15T06:30:41;5.28;;;0.82;;
68377;SDS011;55322;48.146;11.516;2024-02-15T06:33:25;5.85;;;0.70;;
68377;SDS011;55322;48.146;11.516;2024-02-15T06:36:09;4.07;;;0.70;;
68377;SDS011;55322;48.146;11.516;2024-02-15T06:38:53;5.25;;;0.90;;
68377;SDS011;55322;48.146;11.516;2024-02-15T06:41:37;4.40;;;0.80;;
68377;SDS011;55322;48.146;11.516;2024-02-15T06:44:03;4.20;;;0.80;;
68377;SDS011;55322;48.146;11.516;2024-02-15T06:46:30;5.03;;;0.80;;
68377;SDS011;55322;48.146;11.516;2024-02-15T06:48:55;3.85;;;0.85;;
68377;SDS011;55322;48.146;11.516;2024-02-15T06:51:23;5.13;;;0.97;;
68377;SDS011;55322;48.146;11.516;2024-02-15T06:53:49;4.82;;;0.80;;
68377;SDS011;55322;48.146;11.516;2024-02-15T06:56:16;4.47;;;0.93;;
68377;SDS011;55322;48.146;11.516;2024-02-15T06:58:41;6.77;;;1.13;;
68377;SDS011;55322;48.146;11.516;2024-02-15T07:01:07;8.63;;;1.00;;
68377;SDS011;55322;48.146;11.516;2024-02-15T07:03:32;5.25;;;1.35;;
68377;SDS011;55322;48.146;11.516;2024-02-15T07:05:58;5.90;;;0.90;;
68377;SDS011;55322;48.146;11.516;2024-02-15T07:08:23;5.07;;;1.17;;
68377;SDS011;55322;48.146;11.516;2024-02-15T07:10:49;6.60;;;1.25;;
68377;SDS011;55322;48.146;11.516;2024-02-15T07:13:16;4.97;;;1.17;;
68377;SDS011;55322;48.146;11.516;2024-02-15T07:15:42;4.53;;;0.97;;
68377;SDS011;55322;48.146;11.516;2024-02-15T07:18:09;6.10;;;1.10;;
68377;SDS011;55322;48.146;11.516;2024-02-15T07:20:35;5.85;;;1.00;;
68377;SDS011;55322;48.146;11.516;2024-02-15T07:23:01;4.53;;;0.67;;
68377;SDS011;55322;48.146;11.516;2024-02-15T07:25:26;6.53;;;0.87;;
68377;SDS011;55322;48.146;11.516;2024-02-15T07:27:52;6.95;;;0.98;;
68377;SDS011;55322;48.146;11.516;2024-02-15T07:30:21;7.60;;;1.02;;
68377;SDS011;55322;48.146;11.516;2024-02-15T07:32:47;4.97;;;0.83;;
68377;SDS011;55322;48.146;11.516;2024-02-15T07:35:13;5.68;;;0.90;;
68377;SDS011;55322;48.146;11.516;2024-02-15T07:37:50;4.07;;;0.80;;
68377;SDS011;55322;48.146;11.516;2024-02-15T07:40:18;4.63;;;0.88;;
68377;SDS011;55322;48.146;11.516;2024-02-15T07:42:43;6.57;;;0.63;;
68377;SDS011;55322;48.146;11.516;2024-02-15T07:45:09;5.10;;;1.10;;
68377;SDS011;55322;48.146;11.516;2024-02-15T07:47:36;6.90;;;0.88;;
68377;SDS011;55322;48.146;11.516;2024-02-15T07:50:01;6.50;;;0.93;;
68377;SDS011;55322;48.146;11.516;2024-02-15T07:52:28;9.20;;;1.15;;
68377;SDS011;55322;48.146;11.516;2024-02-15T07:54:54;5.60;;;1.00;;
68377;SDS011;55322;48.146;11.516;2024-02-15T07:57:19;6.22;;;1.00;;
68377;SDS011;55322;48.146;11.516;2024-02-15T07:59:45;6.40;;;1.00;;
68377;SDS011;55322;48.146;11.516;2024-02-15T08:02:12;5.07;;;1.38;;
68377;SDS011;55322;48.146;11.516;2024-02-15T08:04:42;7.53;;;1.10;;
68377;SDS011;55322;48.146;11.516;2024-02-15T08:07:09;5.47;;;1.15;;
68377;SDS011;55322;48.146;11.516;2024-02-15T08:09:36;6.90;;;1.23;;
68377;SDS011;55322;48.146;11.516;2024-02-15T08:12:02;5.88;;;1.40;;
68377;SDS011;55322;48.146;11.516;2024-02-15T08:14:28;9.35;;;1.40;;
68377;SDS011;55322;48.146;11.516;2024-02-15T08:16:53;5.97;;;1.30;;
68377;SDS011;55322;48.146;11.516;2024-02-15T08:19:20;8.75;;;1.58;;
68377;SDS011;55322;48.146;11.516;2024-02-15T08:21:48;4.93;;;1.23;;
68377;SDS011;55322;48.146;11.516;2024-02-15T08:24:15;4.80;;;0.77;;
68377;SDS011;55322;48.146;11.516;2024-02-15T08:26:42;5.03;;;0.90;;
68377;SDS011;55322;48.146;11.516;2024-02-15T08:29:08;5.25;;;1.17;;
68377;SDS011;55322;48.146;11.516;2024-02-15T08:31:34;4.65;;;0.90;;
68377;SDS011;55322;48.146;11.516;2024-02-15T08:34:01;5.15;;;1.10;;
68377;SDS011;55322;48.146;11.516;2024-02-15T08:36:35;4.07;;;1.03;;
68377;SDS011;55322;48.146;11.516;2024-02-15T08:39:01;5.80;;;0.85;;
68377;SDS011;55322;48.146;11.516;2024-02-15T08:41:26;4.73;;;1.20;;
68377;SDS011;55322;48.146;11.516;2024-02-15T08:43:52;5.15;;;0.90;;
68377;SDS011;55322;48.146;11.516;2024-02-15T08:46:18;4.47;;;1.00;;
68377;SDS011;55322;48.146;11.516;2024-02-15T08:48:44;4.60;;;0.90;;
68377;SDS011;55322;48.146;11.516;2024-02-15T08:51:11;5.20;;;0.90;;
68377;SDS011;55322;48.146;11.516;2024-02-15T08:53:37;4.22;;;1.10;;
68377;SDS011;55322;48.146;11.516;2024-02-15T08:56:03;4.40;;;0.80;;
68377;SDS011;55322;48.146;11.516;2024-02-15T08:58:29;8.02;;;1.23;;
68377;SDS011;55322;48.146;11.516;2024-02-15T09:00:57;5.65;;;1.10;;
68377;SDS011;55322;48.146;11.516;2024-02-15T09:03:23;6.43;;;1.10;;
68377;SDS011;55322;48.146;11.516;2024-02-15T09:05:48;5.83;;;1.13;;
68377;SDS011;55322;48.146;11.516;2024-02-15T09:08:14;6.55;;;1.10;;
68377;SDS011;55322;48.146;11.516;2024-02-15T09:10:40;4.93;;;0.93;;
68377;SDS011;55322;48.146;11.516;2024-02-15T09:13:07;5.22;;;1.10;;
68377;SDS011;55322;48.146;11.516;2024-02-15T09:15:33;6.57;;;1.25;;
68377;SDS011;55322;48.146;11.516;2024-02-15T09:17:58;5.40;;;1.07;;
68377;SDS011;55322;48.146;11.516;2024-02-15T09:20:24;7.60;;;1.30;;
68377;SDS011;55322;48.146;11.516;2024-02-15T09:22:53;4.25;;;0.95;;
68377;SDS011;55322;48.146;11.516;2024-02-15T09:25:19;5.10;;;1.17;;
68377;SDS011;55322;48.146;11.516;2024-02-15T09:27:48;4.90;;;1.20;;
68377;SDS011;55322;48.146;11.516;2024-02-15T09:30:14;4.90;;;1.27;;
68377;SDS011;55322;48.146;11.516;2024-02-15T09:32:40;4.93;;;1.13;;
68377;SDS011;55322;48.146;11.516;2024-02-15T09:35:07;4.63;;;1.25;;
68377;SDS011;55322;48.146;11.516;2024-02-15T09:37:36;4.40;;;1.20;;
68377;SDS011;55322;48.146;11.516;2024-02-15T09:40:09;5.63;;;1.42;;
68377;SDS011;55322;48.146;11.516;2024-02-15T09:42:38;5.85;;;1.40;;
68377;SDS011;55322;48.146;11.516;2024-02-15T09:45:05;6.33;;;1.20;;
68377;SDS011;55322;48.146;11.516;2024-02-15T09:47:35;6.75;;;1.30;;
68377;SDS011;55322;48.146;11.516;2024-02-15T09:50:02;5.18;;;1.13;;
68377;SDS011;55322;48.146;11.516;2024-02-15T09:52:31;6.20;;;1.13;;
68377;SDS011;55322;48.146;11.516;2024-02-15T09:54:58;4.53;;;1.00;;
68377;SDS011;55322;48.146;11.516;2024-02-15T09:57:27;5.07;;;1.20;;
68377;SDS011;55322;48.146;11.516;2024-02-15T09:59:54;5.97;;;1.23;;
68377;SDS011;55322;48.146;11.516;2024-02-15T10:02:19;5.27;;;1.10;;
68377;SDS011;55322;48.146;11.516;2024-02-15T10:04:46;3.80;;;0.80;;
68377;SDS011;55322;48.146;11.516;2024-02-15T10:07:12;5.70;;;1.00;;
68377;SDS011;55322;48.146;11.516;2024-02-15T10:09:38;6.17;;;0.70;;
68377;SDS011;55322;48.146;11.516;2024-02-15T10:12:07;3.70;;;0.65;;
68377;SDS011;55322;48.146;11.516;2024-02-15T10:14:34;4.28;;;0.80;;
68377;SDS011;55322;48.146;11.516;2024-02-15T10:17:05;3.90;;;0.70;;
68377;SDS011;55322;48.146;11.516;2024-02-15T10:19:34;4.00;;;0.75;;
68377;SDS011;55322;48.146;11.516;2024-02-15T10:22:05;4.20;;;0.63;;
68377;SDS011;55322;48.146;11.516;2024-02-15T10:24:31;4.45;;;0.80;;
68377;SDS011;55322;48.146;11.516;2024-02-15T10:27:00;4.23;;;0.70;;
68377;SDS011;55322;48.146;11.516;2024-02-15T10:29:29;4.07;;;0.70;;
68377;SDS011;55322;48.146;11.516;2024-02-15T10:31:58;3.45;;;0.70;;
68377;SDS011;55322;48.146;11.516;2024-02-15T10:34:24;3.33;;;0.53;;
68377;SDS011;55322;48.146;11.516;2024-02-15T10:37:10;4.03;;;0.70;;
68377;SDS011;55322;48.146;11.516;2024-02-15T10:39:41;4.00;;;0.68;;
68377;SDS011;55322;48.146;11.516;2024-02-15T10:42:07;4.55;;;0.60;;
68377;SDS011;55322;48.146;11.516;2024-02-15T10:44:36;3.63;;;0.73;;
68377;SDS011;55322;48.146;11.516;2024-02-15T10:47:03;4.27;;;0.70;;
68377;SDS011;55322;48.146;11.516;2024-02-15T10:49:32;3.78;;;0.70;;
68377;SDS011;55322;48.146;11.516;2024-02-15T10:51:58;3.22;;;0.70;;
68377;SDS011;55322;48.146;11.516;2024-02-15T10:54:39;3.45;;;0.70;;
68377;SDS011;55322;48.146;11.516;2024-02-15T10:57:09;4.00;;;0.70;;
68377;SDS011;55322;48.146;11.516;2024-02-15T10:59:38;3.30;;;0.57;;
68377;SDS011;55322;48.146;11.516;2024-02-15T11:02:15;3.08;;;0.50;;
68377;SDS011;55322;48.146;11.516;2024-02-15T11:05:03;3.47;;;0.60;;
68377;SDS011;55322;48.146;11.516;2024-02-15T11:07:34;3.47;;;0.50;;
68377;SDS011;55322;48.146;11.516;2024-02-15T11:09:59;3.37;;;0.60;;
68377;SDS011;55322;48.146;11.516;2024-02-15T11:12:25;3.97;;;0.50;;
68377;SDS011;55322;48.146;11.516;2024-02-15T11:14:51;5.47;;;0.90;;
68377;SDS011;55322;48.146;11.516;2024-02-15T11:20:02;5.47;;;0.70;;
68377;SDS011;55322;48.146;11.516;2024-02-15T11:22:33;4.23;;;0.80;;
68377;SDS011;55322;48.146;11.516;2024-02-15T11:25:01;5.40;;;0.93;;
68377;SDS011;55322;48.146;11.516;2024-02-15T11:27:30;3.38;;;0.60;;
68377;SDS011;55322;48.146;11.516;2024-02-15T11:29:57;5.90;;;0.60;;
68377;SDS011;55322;48.146;11.516;2024-02-15T11:40:13;4.13;;;0.60;;
68377;SDS011;55322;48.146;11.516;2024-02-15T11:42:47;4.43;;;0.43;;
68377;SDS011;55322;48.146;11.516;2024-02-15T11:45:14;3.00;;;0.50;;
68377;SDS011;55322;48.146;11.516;2024-02-15T11:47:43;3.17;;;0.50;;
68377;SDS011;55322;48.146;11.516;2024-02-15T11:50:15;3.25;;;0.57;;
68377;SDS011;55322;48.146;11.516;2024-02-15T11:52:41;4.00;;;0.67;;
68377;SDS011;55322;48.146;11.516;2024-02-15T11:55:11;3.97;;;0.60;;
68377;SDS011;55322;48.146;11.516;2024-02-15T11:57:38;3.42;;;0.60;;
68377;SDS011;55322;48.146;11.516;2024-02-15T12:00:20;3.65;;;0.55;;
68377;SDS011;55322;48.146;11.516;2024-02-15T12:03:05;3.45;;;0.50;;
68377;SDS011;55322;48.146;11.516;2024-02-15T12:05:49;3.33;;;0.40;;
68377;SDS011;55322;48.146;11.516;2024-02-15T12:08:34;3.90;;;0.70;;
68377;SDS011;55322;48.146;11.516;2024-02-15T12:11:18;3.45;;;0.63;;
68377;SDS011;55322;48.146;11.516;2024-02-15T12:14:02;4.00;;;0.65;;
68377;SDS011;55322;48.146;11.516;2024-02-15T12:16:46;2.88;;;0.43;;
68377;SDS011;55322;48.146;11.516;2024-02-15T12:19:30;5.57;;;0.50;;
68377;SDS011;55322;48.146;11.516;2024-02-15T12:21:56;4.65;;;0.50;;
68377;SDS011;55322;48.146;11.516;2024-02-15T12:24:23;4.13;;;0.50;;
68377;SDS011;55322;48.146;11.516;2024-02-15T12:26:52;3.47;;;0.40;;
68377;SDS011;55322;48.146;11.516;2024-02-15T12:29:25;2.75;;;0.40;;
68377;SDS011;55322;48.146;11.516;2024-02-15T12:31:50;3.37;;;0.60;;
68377;SDS011;55322;48.146;11.516;2024-02-15T12:34:16;3.78;;;0.55;;
68377;SDS011;55322;48.146;11.516;2024-02-15T12:36:45;2.70;;;0.50;;
68377;SDS011;55322;48.146;11.516;2024-02-15T12:39:11;2.80;;;0.50;;
68377;SDS011;55322;48.146;11.516;2024-02-15T12:41:38;3.80;;;0.50;;
68377;SDS011;55322;48.146;11.516;2024-02-15T12:44:06;3.30;;;0.50;;
68377;SDS011;55322;48.146;11.516;2024-02-15T12:46:33;2.50;;;0.38;;
68377;SDS011;55322;48.146;11.516;2024-02-15T12:49:09;4.93;;;0.60;;
68377;SDS011;55322;48.146;11.516;2024-02-15T12:51:38;2.83;;;0.40;;
68377;SDS011;55322;48.146;11.516;2024-02-15T12:54:08;4.15;;;0.60;;
68377;SDS011;55322;48.146;11.516;2024-02-15T12:56:35;3.33;;;0.50;;
68377;SDS011;55322;48.146;11.516;2024-02-15T12:59:01;3.43;;;0.50;;
68377;SDS011;55322;48.146;11.516;2024-02-15T13:01:27;3.65;;;0.70;;
68377;SDS011;55322;48.146;11.516;2024-02-15T13:03:54;3.42;;;0.50;;
68377;SDS011;55322;48.146;11.516;2024-02-15T13:06:19;2.92;;;0.50;;
68377;SDS011;55322;48.146;11.516;2024-02-15T13:08:48;3.57;;;0.60;;
68377;SDS011;55322;48.146;11.516;2024-02-15T13:11:14;4.20;;;0.40;;
68377;SDS011;55322;48.146;11.516;2024-02-15T13:13:40;3.58;;;0.52;;
68377;SDS011;55322;48.146;11.516;2024-02-15T13:16:07;3.58;;;0.75;;
68377;SDS011;55322;48.146;11.516;2024-02-15T13:18:33;6.07;;;0.67;;
68377;SDS011;55322;48.146;11.516;2024-02-15T13:20:58;3.93;;;0.60;;
68377;SDS011;55322;48.146;11.516;2024-02-15T13:23:24;3.92;;;0.55;;
68377;SDS011;55322;48.146;11.516;2024-02-15T13:25:51;3.53;;;0.60;;
68377;SDS011;55322;48.146;11.516;2024-02-15T13:28:17;3.20;;;0.50;;
68377;SDS011;55322;48.146;11.516;2024-02-15T13:30:43;2.67;;;0.47;;
68377;SDS011;55322;48.146;11.516;2024-02-15T13:33:10;4.20;;;0.60;;
68377;SDS011;55322;48.146;11.516;2024-02-15T13:35:36;2.95;;;0.40;;
68377;SDS011;55322;48.146;11.516;2024-02-15T13:38:02;3.33;;;0.63;;
68377;SDS011;55322;48.146;11.516;2024-02-15T13:40:28;2.85;;;0.45;;
68377;SDS011;55322;48.146;11.516;2024-02-15T13:42:56;5.17;;;0.60;;
68377;SDS011;55322;48.146;11.516;2024-02-15T13:45:38;3.42;;;0.57;;
68377;SDS011;55322;48.146;11.516;2024-02-15T13:48:04;4.20;;;0.65;;
68377;SDS011;55322;48.146;11.516;2024-02-15T13:50:32;2.80;;;0.50;;
68377;SDS011;55322;48.146;11.516;2024-02-15T13:52:58;3.75;;;0.60;;
68377;SDS011;55322;48.146;11.516;2024-02-15T13:55:24;3.63;;;0.50;;
68377;SDS011;55322;48.146;11.516;2024-02-15T13:57:51;4.15;;;0.50;;
68377;SDS011;55322;48.146;11.516;2024-02-15T14:00:17;4.90;;;0.70;;
68377;SDS011;55322;48.146;11.516;2024-02-15T14:02:55;4.55;;;0.65;;
68377;SDS011;55322;48.146;11.516;2024-02-15T14:05:25;3.73;;;0.70;;
68377;SDS011;55322;48.146;11.516;2024-02-15T14:07:57;5.47;;;0.52;;
68377;SDS011;55322;48.146;11.516;2024-02-15T14:10:24;4.18;;;0.60;;
68377;SDS011;55322;48.146;11.516;2024-02-15T14:12:51;3.67;;;0.63;;
68377;SDS011;55322;48.146;11.516;2024-02-15T14:15:20;5.35;;;0.80;;
68377;SDS011;55322;48.146;11.516;2024-02-15T14:17:46;3.70;;;0.67;;
68377;SDS011;55322;48.146;11.516;2024-02-15T14:20:12;4.47;;;0.70;;
68377;SDS011;55322;48.146;11.516;2024-02-15T14:22:41;5.88;;;1.58;;
68377;SDS011;55322;48.146;11.516;2024-02-15T14:25:11;5.60;;;0.80;;
68377;SDS011;55322;48.146;11.516;2024-02-15T14:27:39;3.33;;;0.50;;
68377;SDS011;55322;48.146;11.516;2024-02-15T14:30:05;4.20;;;0.63;;
68377;SDS011;55322;48.146;11.516;2024-02-15T14:32:50;3.28;;;0.50;;
68377;SDS011;55322;48.146;11.516;2024-02-15T14:35:37;5.60;;;0.77;;
68377;SDS011;55322;48.146;11.516;2024-02-15T14:38:07;4.03;;;0.80;;
68377;SDS011;55322;48.146;11.516;2024-02-15T14:40:39;5.82;;;0.73;;
68377;SDS011;55322;48.146;11.516;2024-02-15T14:43:06;4.03;;;0.70;;
68377;SDS011;55322;48.146;11.516;2024-02-15T14:45:33;4.30;;;0.93;;
68377;SDS011;55322;48.146;11.516;2024-02-15T14:47:59;5.27;;;0.77;;